Pocono Summit, Pennsylvania
Current Conditions -  °F | °C
As of 12:53 AM on Sunday 26 Oct 2014 (Local Time) from KMPO Reporting Station
Clear Clear  
Wind Chill:   Ceiling: Unl
Heat Index:   Visibility: 10mi
Dew Point:   Wind: 7mph
Humidity: 74%   Direction: 280°W
Pressure: 29.6"   Gusts: NA
Location:  41.11°N, 75.39°W
Report Text: KMPO 260453Z AUTO 28006KT 10SM CLR 09/05 A2960 RMK AO2 SLP025 T00940050 401610056
Loading
Personal Weather Stations






























Interactive Weather Map
Tropical Storm Tracking
New forecast layout! Learn more

10-Day Weather Forecast

Advertisements
Track Severe Weather on mobile